createdAt,value
2023-03-24T00:05:37.969Z,996.53
2023-03-24T00:12:00.998Z,996.48
2023-03-24T00:18:21.017Z,996.38
2023-03-24T00:24:43.983Z,996.28
2023-03-24T00:31:04.024Z,996.18
2023-03-24T00:37:27.028Z,996.12
2023-03-24T00:43:46.970Z,996.06
2023-03-24T00:50:09.991Z,995.95
2023-03-24T00:56:30.079Z,995.85
2023-03-24T01:02:53.020Z,995.77
2023-03-24T01:09:13.003Z,995.71
2023-03-24T01:15:36.000Z,995.67
2023-03-24T01:21:55.988Z,995.59
2023-03-24T01:28:18.984Z,995.58
2023-03-24T01:34:39.010Z,995.59
2023-03-24T01:41:01.977Z,995.54
2023-03-24T01:47:21.969Z,995.46
2023-03-24T01:53:45.030Z,995.4
2023-03-24T02:00:04.992Z,995.34
2023-03-24T02:06:28.026Z,995.12
2023-03-24T02:12:48.011Z,995
2023-03-24T02:19:10.989Z,994.79
2023-03-24T02:25:30.974Z,994.61
2023-03-24T02:31:54.049Z,994.49
2023-03-24T02:38:13.974Z,994.36
2023-03-24T02:44:36.994Z,994.3
2023-03-24T02:50:57.095Z,994.3
2023-03-24T02:57:19.982Z,994.26
2023-03-24T03:03:39.996Z,994.28
2023-03-24T03:10:03.039Z,994.26
2023-03-24T03:16:23.030Z,994.26
2023-03-24T03:22:45.979Z,994.24
2023-03-24T03:29:06.024Z,994.16
2023-03-24T03:35:28.983Z,994.12
2023-03-24T03:41:48.992Z,994.12
2023-03-24T03:48:12.045Z,994.14
2023-03-24T03:54:32.000Z,994.18
2023-03-24T04:00:54.983Z,994.2
2023-03-24T04:07:14.999Z,994.22
2023-03-24T04:13:38.007Z,994.24
2023-03-24T04:19:57.979Z,994.28
2023-03-24T04:26:21.024Z,994.2
2023-03-24T04:49:05.983Z,994.28
2023-03-24T04:55:28.994Z,994.28
2023-03-24T05:01:48.978Z,994.34
2023-03-24T05:08:12.029Z,994.43
2023-03-24T05:14:31.977Z,994.53
2023-03-24T05:20:55.013Z,994.57
2023-03-24T05:27:15.005Z,994.98
2023-03-24T05:33:38.135Z,995.32
2023-03-24T05:39:57.991Z,995.42
2023-03-24T05:46:21.044Z,995.52
2023-03-24T05:52:41.006Z,995.52
2023-03-24T05:59:03.978Z,995.61
2023-03-24T06:05:24.008Z,995.75
2023-03-24T06:11:47.023Z,995.89
2023-03-24T06:18:06.992Z,996.03
2023-03-24T06:24:30.061Z,996.16
2023-03-24T06:30:50.032Z,996.22
2023-03-24T06:37:13.009Z,996.18
2023-03-24T06:43:33.017Z,996.26
2023-03-24T06:49:56.008Z,996.44
2023-03-24T06:56:15.971Z,996.57
2023-03-24T07:02:39.072Z,996.71
2023-03-24T07:08:58.994Z,996.83
2023-03-24T07:15:22.006Z,996.91
2023-03-24T07:21:42.031Z,997.04
2023-03-24T07:28:05.020Z,997.12
2023-03-24T07:34:24.983Z,997.22
2023-03-24T07:40:48.050Z,997.34
2023-03-24T07:47:07.997Z,997.47
2023-03-24T07:53:30.993Z,997.57
2023-03-24T07:59:51.013Z,997.59
2023-03-24T08:06:13.988Z,997.67
2023-03-24T08:12:33.986Z,997.79
2023-03-24T08:18:57.030Z,997.69
2023-03-24T08:25:16.985Z,997.61
2023-03-24T08:31:40.022Z,997.55
2023-03-24T08:38:00.014Z,997.53
2023-03-24T08:44:23.017Z,997.57
2023-03-24T08:50:42.986Z,997.61
2023-03-24T08:57:06.109Z,997.69
2023-03-24T09:03:25.976Z,997.79
2023-03-24T09:09:48.995Z,997.83
2023-03-24T09:16:09.082Z,997.89
2023-03-24T09:22:32.013Z,997.97
2023-03-24T09:28:51.984Z,997.97
2023-03-24T09:35:15.018Z,997.95
2023-03-24T09:41:34.979Z,997.93
2023-03-24T09:47:58.031Z,997.93
2023-03-24T10:10:43.979Z,998.01
2023-03-24T10:17:07.007Z,998.09
2023-03-24T10:23:26.982Z,998.11
2023-03-24T10:29:50.022Z,998.17
2023-03-24T10:36:09.999Z,998.17
2023-03-24T10:42:33.053Z,998.21
2023-03-24T10:48:53.096Z,998.17
2023-03-24T10:55:16.012Z,998.19
2023-03-24T11:01:36.119Z,998.24
2023-03-24T11:07:59.049Z,998.26
2023-03-24T11:14:18.995Z,998.34
2023-03-24T11:20:41.996Z,998.4
2023-03-24T11:27:02.275Z,998.38
2023-03-24T11:33:35.025Z,998.44
2023-03-24T11:39:44.990Z,998.46
2023-03-24T11:46:08.021Z,998.4
2023-03-24T11:52:27.981Z,998.36
2023-03-24T11:58:52.033Z,998.32
2023-03-24T12:05:13.048Z,998.23
2023-03-24T12:11:36.002Z,998.19
2023-03-24T12:17:56.030Z,998.19
2023-03-24T12:24:19.025Z,998.07
2023-03-24T12:30:38.973Z,998.09
2023-03-24T12:37:02.001Z,998.09
2023-03-24T12:43:22.012Z,998.09
2023-03-24T12:49:44.995Z,998.05
2023-03-24T12:56:04.994Z,998.03
2023-03-24T13:02:28.057Z,998.03
2023-03-24T13:08:47.990Z,997.97
2023-03-24T13:15:11.233Z,997.95
2023-03-24T13:21:31.092Z,997.85
2023-03-24T13:27:54.002Z,997.83
2023-03-24T13:34:13.994Z,997.69
2023-03-24T13:40:37.130Z,997.79
2023-03-24T13:46:56.998Z,997.77
2023-03-24T13:53:19.989Z,997.81
2023-03-24T13:59:40.024Z,997.83
2023-03-24T14:06:02.983Z,997.83
2023-03-24T14:12:23.032Z,997.81
2023-03-24T14:18:46.037Z,997.77
2023-03-24T14:25:05.988Z,997.63
2023-03-24T14:31:29.261Z,997.59
2023-03-24T14:37:49.035Z,997.53
2023-03-24T14:44:11.981Z,997.55
2023-03-24T14:50:32.000Z,997.51
2023-03-24T14:56:55.038Z,997.53
2023-03-24T15:03:15.014Z,997.53
2023-03-24T15:09:38.026Z,997.59
2023-03-24T15:15:58.080Z,997.91
2023-03-24T15:38:46.033Z,997.95
2023-03-24T15:45:09.010Z,997.89
2023-03-24T15:51:28.993Z,997.81
2023-03-24T15:57:52.010Z,997.69
2023-03-24T16:04:12.000Z,997.61
2023-03-24T16:10:34.992Z,997.47
2023-03-24T16:16:55.060Z,997.36
2023-03-24T16:23:17.998Z,997.28
2023-03-24T16:29:37.986Z,997.22
2023-03-24T16:36:01.176Z,997.26
2023-03-24T16:42:21.100Z,997.28
2023-03-24T16:48:45.103Z,997.65
2023-03-24T16:55:05.026Z,997.83
2023-03-24T17:01:28.013Z,997.99
2023-03-24T17:07:48.006Z,998.19
2023-03-24T17:14:11.009Z,998.6
2023-03-24T17:20:30.984Z,998.89
2023-03-24T17:26:54.005Z,998.87
2023-03-24T17:33:14.086Z,998.79
2023-03-24T17:39:37.013Z,998.75
2023-03-24T17:45:57.008Z,998.7
2023-03-24T17:52:20.024Z,998.71
2023-03-24T17:58:40.008Z,998.77
2023-03-24T18:05:03.007Z,998.75
2023-03-24T18:11:23.050Z,998.81
2023-03-24T18:17:46.112Z,998.83
2023-03-24T18:24:06.000Z,998.85
2023-03-24T18:30:29.007Z,998.83
2023-03-24T18:36:48.976Z,998.81
2023-03-24T18:43:11.975Z,998.79
2023-03-24T18:49:32.004Z,998.77
2023-03-24T18:55:55.022Z,998.7
2023-03-24T19:02:14.985Z,998.64
2023-03-24T19:08:38.129Z,998.62
2023-03-24T19:14:58.037Z,998.66
2023-03-24T19:21:20.988Z,998.62
2023-03-24T19:27:41.032Z,998.62
2023-03-24T19:34:04.000Z,998.66
2023-03-24T19:40:23.990Z,998.7
2023-03-24T19:46:47.039Z,998.81
2023-03-24T19:53:07.009Z,998.79
2023-03-24T19:59:29.991Z,998.79
2023-03-24T20:05:50.339Z,998.81
2023-03-24T20:12:13.012Z,998.81
2023-03-24T20:18:32.973Z,998.73
2023-03-24T20:24:56.008Z,998.71
2023-03-24T20:31:16.006Z,998.71
2023-03-24T20:55:06.005Z,998.71
2023-03-24T21:01:28.974Z,998.68
2023-03-24T21:07:48.989Z,998.62
2023-03-24T21:14:11.998Z,998.62
2023-03-24T21:20:32.006Z,998.56
2023-03-24T21:26:55.023Z,998.54
2023-03-24T21:33:15.022Z,998.56
2023-03-24T21:39:38.015Z,998.66
2023-03-24T21:45:58.121Z,998.68
2023-03-24T21:52:21.041Z,998.75
2023-03-24T21:58:40.989Z,998.85
2023-03-24T22:05:04.000Z,998.89
2023-03-24T22:11:24.018Z,998.85
2023-03-24T22:17:47.003Z,998.83
2023-03-24T22:24:06.996Z,998.79
2023-03-24T22:30:30.161Z,998.79
2023-03-24T22:36:49.970Z,998.81
2023-03-24T22:43:12.999Z,998.85
2023-03-24T22:49:33.024Z,998.87
2023-03-24T22:55:55.990Z,998.89
2023-03-24T23:20:11.010Z,999.03
2023-03-24T23:26:30.983Z,999.03
2023-03-24T23:32:54.085Z,999.11
2023-03-24T23:39:14.024Z,999.13
2023-03-24T23:45:37.006Z,999.15
2023-03-24T23:51:56.998Z,999.22
2023-03-24T23:58:20.016Z,999.26
